createdAt,value
2022-12-19T00:01:43.881Z,101850.59
2022-12-19T00:04:15.497Z,101842.91
2022-12-19T00:06:43.804Z,101830.91
2022-12-19T00:09:12.581Z,101816.19
2022-12-19T00:11:40.245Z,101828.31
2022-12-19T00:14:09.213Z,101831.88
2022-12-19T00:16:36.454Z,101827.63
2022-12-19T00:19:04.120Z,101832.91
2022-12-19T00:21:35.039Z,101829.44
2022-12-19T00:24:20.932Z,101824.38
2022-12-19T00:26:50.209Z,101835.56
2022-12-19T00:29:17.911Z,101832.16
2022-12-19T00:31:44.976Z,101822.75
2022-12-19T00:34:15.295Z,101834.00
2022-12-19T00:36:43.195Z,101826.16
2022-12-19T00:39:11.638Z,101831.44
2022-12-19T00:41:41.647Z,101819.28
2022-12-19T00:44:14.082Z,101805.34
2022-12-19T00:46:41.956Z,101798.34
2022-12-19T00:49:09.100Z,101792.41
2022-12-19T00:51:38.198Z,101785.47
2022-12-19T00:54:09.879Z,101775.91
2022-12-19T00:56:38.112Z,101754.28
2022-12-19T00:59:07.532Z,101729.25
2022-12-19T01:01:39.739Z,101738.69
2022-12-19T01:04:29.444Z,101737.13
2022-12-19T01:07:01.541Z,101717.25
2022-12-19T01:09:34.075Z,101708.66
2022-12-19T01:12:25.135Z,101712.22
2022-12-19T01:14:59.487Z,101722.69
2022-12-19T01:17:35.497Z,101701.22
2022-12-19T01:20:15.362Z,101715.13
2022-12-19T01:22:45.365Z,101713.41
2022-12-19T01:25:14.797Z,101708.28
2022-12-19T01:27:42.069Z,101718.69
2022-12-19T01:30:10.549Z,101726.56
2022-12-19T01:32:38.624Z,101712.81
2022-12-19T01:35:06.747Z,101724.19
2022-12-19T01:37:43.206Z,101716.53
2022-12-19T01:40:13.306Z,101706.25
2022-12-19T01:42:40.469Z,101693.31
2022-12-19T01:45:07.450Z,101692.53
2022-12-19T01:48:17.737Z,101687.44
2022-12-19T01:51:02.019Z,101679.66
2022-12-19T01:53:53.010Z,101681.38
2022-12-19T01:56:28.674Z,101697.00
2022-12-19T01:59:06.545Z,101697.06
2022-12-19T02:01:50.793Z,101688.44
2022-12-19T02:04:20.768Z,101691.91
2022-12-19T02:06:50.000Z,101674.69
2022-12-19T02:09:18.994Z,101686.88
2022-12-19T02:11:46.430Z,101676.53
2022-12-19T02:14:13.972Z,101674.03
2022-12-19T02:17:10.708Z,101663.75
2022-12-19T02:20:25.556Z,101663.75
2022-12-19T02:23:41.792Z,101649.13
2022-12-19T02:26:37.829Z,101645.63
2022-12-19T02:29:34.395Z,101650.94
2022-12-19T02:32:34.651Z,101649.25
2022-12-19T02:35:31.104Z,101640.66
2022-12-19T02:38:28.227Z,101634.69
2022-12-19T02:41:05.930Z,101639.06
2022-12-19T02:43:39.888Z,101640.91
2022-12-19T02:46:12.080Z,101630.59
2022-12-19T02:48:42.108Z,101622.00
2022-12-19T02:51:09.341Z,101624.69
2022-12-19T02:53:38.980Z,101628.25
2022-12-19T02:56:23.190Z,101622.19
2022-12-19T02:59:34.821Z,101623.97
2022-12-19T03:02:16.205Z,101616.19
2022-12-19T03:05:13.983Z,101600.72
2022-12-19T03:08:08.259Z,101603.38
2022-12-19T03:10:49.467Z,101599.09
2022-12-19T03:13:24.946Z,101611.25
2022-12-19T03:15:53.831Z,101610.44
2022-12-19T03:18:21.580Z,101605.28
2022-12-19T03:20:54.260Z,101595.84
2022-12-19T03:23:21.733Z,101596.69
2022-12-19T03:25:56.845Z,101589.81
2022-12-19T03:28:36.605Z,101598.47
2022-12-19T03:31:06.752Z,101595.97
2022-12-19T03:33:35.142Z,101587.25
2022-12-19T03:36:10.475Z,101590.69
2022-12-19T03:38:40.896Z,101582.91
2022-12-19T03:41:13.161Z,101575.09
2022-12-19T03:43:44.636Z,101585.53
2022-12-19T03:46:24.579Z,101582.94
2022-12-19T03:48:54.540Z,101585.56
2022-12-19T03:51:38.030Z,101574.34
2022-12-19T03:54:20.451Z,101571.75
2022-12-19T03:56:53.512Z,101582.09
2022-12-19T03:59:41.316Z,101582.09
2022-12-19T04:02:10.220Z,101570.06
2022-12-19T04:04:44.245Z,101577.94
2022-12-19T04:07:14.925Z,101573.66
2022-12-19T04:09:45.839Z,101568.50
2022-12-19T04:12:18.942Z,101559.84
2022-12-19T04:14:49.961Z,101561.69
2022-12-19T04:17:47.220Z,101569.56
2022-12-19T04:20:22.345Z,101560.94
2022-12-19T04:23:06.746Z,101558.47
2022-12-19T04:25:40.284Z,101540.31
2022-12-19T04:28:18.700Z,101548.25
2022-12-19T04:30:48.519Z,101545.72
2022-12-19T04:33:15.656Z,101547.50
2022-12-19T04:35:42.753Z,101544.13
2022-12-19T04:38:09.817Z,101550.19
2022-12-19T04:40:41.142Z,101541.53
2022-12-19T04:43:09.512Z,101541.59
2022-12-19T04:45:36.929Z,101542.50
2022-12-19T04:48:04.611Z,101530.41
2022-12-19T04:50:34.232Z,101539.06
2022-12-19T04:53:01.646Z,101533.97
2022-12-19T04:55:28.809Z,101535.78
2022-12-19T04:57:55.943Z,101525.44
2022-12-19T05:00:34.518Z,101524.63
2022-12-19T05:03:02.361Z,101522.97
2022-12-19T05:05:29.758Z,101531.63
2022-12-19T05:07:57.542Z,101522.19
2022-12-19T05:10:24.618Z,101525.66
2022-12-19T05:12:53.933Z,101525.72
2022-12-19T05:15:22.058Z,101524.91
2022-12-19T05:17:49.155Z,101521.44
2022-12-19T05:20:16.425Z,101523.19
2022-12-19T05:22:43.590Z,101513.69
2022-12-19T05:25:11.719Z,101522.41
2022-12-19T05:27:38.853Z,101516.41
2022-12-19T05:30:06.917Z,101519.91
2022-12-19T05:32:39.876Z,101523.44
2022-12-19T05:35:07.340Z,101516.53
2022-12-19T05:37:35.460Z,101520.91
2022-12-19T05:40:02.732Z,101520.09
2022-12-19T05:42:29.689Z,101514.97
2022-12-19T05:44:56.872Z,101514.22
2022-12-19T05:47:23.984Z,101512.66
2022-12-19T05:49:51.521Z,101519.72
2022-12-19T05:52:18.626Z,101507.66
2022-12-19T05:54:46.656Z,101510.34
2022-12-19T05:57:13.811Z,101510.56
2022-12-19T05:59:42.317Z,101509.75
2022-12-19T06:02:09.461Z,101508.06
2022-12-19T06:04:36.643Z,101496.78
2022-12-19T06:07:05.438Z,101497.66
2022-12-19T06:09:32.598Z,101503.78
2022-12-19T06:11:59.585Z,101499.44
2022-12-19T06:14:26.717Z,101495.16
2022-12-19T06:16:53.750Z,101503.09
2022-12-19T06:19:22.000Z,101491.88
2022-12-19T06:21:49.021Z,101492.78
2022-12-19T06:24:16.843Z,101511.94
2022-12-19T06:26:45.596Z,101482.44
2022-12-19T06:29:12.841Z,101515.47
2022-12-19T06:31:42.025Z,101493.72
2022-12-19T06:34:22.067Z,101502.41
2022-12-19T06:37:04.004Z,101501.53
2022-12-19T06:39:33.792Z,101496.31
2022-12-19T06:42:19.390Z,101507.63
2022-12-19T06:44:46.483Z,101504.19
2022-12-19T06:47:13.591Z,101502.47
2022-12-19T06:49:40.638Z,101511.19
2022-12-19T06:52:09.299Z,101507.72
2022-12-19T06:54:36.534Z,101507.75
2022-12-19T06:57:03.735Z,101509.53
2022-12-19T06:59:30.867Z,101513.03
2022-12-19T07:02:30.117Z,101505.28
2022-12-19T07:05:04.037Z,101513.09
2022-12-19T07:07:31.788Z,101521.84
2022-12-19T07:09:59.694Z,101512.31
2022-12-19T07:12:26.771Z,101522.81
2022-12-19T07:14:54.033Z,101523.72
2022-12-19T07:17:24.428Z,101520.25
2022-12-19T07:19:55.944Z,101523.75
2022-12-19T07:22:29.480Z,101519.44
2022-12-19T07:24:57.646Z,101522.97
2022-12-19T07:27:27.323Z,101514.31
2022-12-19T07:30:01.040Z,101525.66
2022-12-19T07:32:28.164Z,101522.19
2022-12-19T07:34:55.212Z,101511.78
2022-12-19T07:37:22.310Z,101517.91
2022-12-19T07:39:49.684Z,101516.16
2022-12-19T07:42:19.588Z,101519.69
2022-12-19T07:44:46.621Z,101529.25
2022-12-19T07:47:13.773Z,101522.31
2022-12-19T07:49:40.882Z,101521.44
2022-12-19T07:52:08.519Z,101527.56
2022-12-19T07:54:35.684Z,101541.50
2022-12-19T07:57:03.305Z,101523.19
2022-12-19T07:59:35.625Z,101523.22
2022-12-19T08:02:06.670Z,101531.09
2022-12-19T08:04:35.198Z,101531.06
2022-12-19T08:07:02.630Z,101525.84
2022-12-19T08:09:30.624Z,101530.22
2022-12-19T08:11:59.002Z,101536.31
2022-12-19T08:14:26.182Z,101538.91
2022-12-19T08:17:19.694Z,101534.56
2022-12-19T08:19:40.486Z,101538.94
2022-12-19T08:22:07.734Z,101543.28
2022-12-19T08:24:34.796Z,101533.72
2022-12-19T08:27:02.993Z,101530.22
2022-12-19T08:29:30.297Z,101539.81
2022-12-19T08:31:57.397Z,101535.47
2022-12-19T08:34:25.567Z,101535.44
2022-12-19T08:36:52.589Z,101529.38
2022-12-19T08:39:19.598Z,101538.94
2022-12-19T08:41:46.695Z,101532.00
2022-12-19T08:44:13.840Z,101538.09
2022-12-19T08:46:48.049Z,101529.38
2022-12-19T08:49:18.737Z,101537.19
2022-12-19T08:51:46.802Z,101531.09
2022-12-19T08:54:13.861Z,101536.34
2022-12-19T08:56:42.982Z,101525.88
2022-12-19T08:59:18.080Z,101537.25
2022-12-19T09:01:58.320Z,101533.75
2022-12-19T09:06:02.453Z,101537.25
2022-12-19T09:07:16.182Z,101537.25
2022-12-19T09:09:44.799Z,101534.59
2022-12-19T09:12:16.213Z,101541.59
2022-12-19T09:14:44.394Z,101537.22
2022-12-19T09:17:11.559Z,101535.47
2022-12-19T09:19:41.221Z,101539.84
2022-12-19T09:22:12.232Z,101549.44
2022-12-19T09:24:39.278Z,101538.97
2022-12-19T09:27:06.355Z,101533.72
2022-12-19T09:29:35.510Z,101549.44
2022-12-19T09:32:03.178Z,101548.56
2022-12-19T09:34:37.290Z,101548.53
2022-12-19T09:37:08.912Z,101552.91
2022-12-19T09:39:37.746Z,101557.28
2022-12-19T09:42:52.704Z,101556.41
2022-12-19T09:45:52.850Z,101554.63
2022-12-19T09:48:23.883Z,101554.66
2022-12-19T09:51:09.984Z,101555.50
2022-12-19T09:54:26.317Z,101554.59
2022-12-19T09:57:01.666Z,101556.34
2022-12-19T09:59:49.394Z,101552.81
2022-12-19T10:02:53.983Z,101559.78
2022-12-19T10:06:13.837Z,101555.41
2022-12-19T10:08:47.247Z,101555.38
2022-12-19T10:12:41.242Z,101556.22
2022-12-19T10:15:28.620Z,101545.69
2022-12-19T10:18:24.852Z,101544.81
2022-12-19T10:21:13.003Z,101551.75
2022-12-19T10:23:55.713Z,101558.72
2022-12-19T10:26:42.702Z,101560.44
2022-12-19T10:29:18.364Z,101549.06
2022-12-19T10:31:55.830Z,101558.69
2022-12-19T10:34:32.715Z,101553.44
2022-12-19T10:37:21.041Z,101547.28
2022-12-19T10:40:21.775Z,101548.13
2022-12-19T10:43:52.957Z,101553.34
2022-12-19T10:46:37.591Z,101547.22
2022-12-19T10:49:15.054Z,101543.69
2022-12-19T10:51:55.466Z,101554.19
2022-12-19T10:54:27.588Z,101536.69
2022-12-19T10:57:28.962Z,101538.41
2022-12-19T11:00:07.050Z,101534.91
2022-12-19T11:02:47.881Z,101542.78
2022-12-19T11:05:25.671Z,101548.88
2022-12-19T11:08:08.080Z,101547.09
2022-12-19T11:13:28.393Z,101543.53
2022-12-19T11:19:30.259Z,101536.53
2022-12-19T11:22:15.455Z,101538.28
2022-12-19T11:29:31.092Z,101544.25
2022-12-19T11:29:31.566Z,101546.13
2022-12-19T11:29:54.948Z,101539.09
2022-12-19T11:30:39.549Z,101539.06
2022-12-19T11:34:21.445Z,101519.75
2022-12-19T11:37:13.387Z,101525.84
2022-12-19T11:39:47.504Z,101521.47
2022-12-19T11:42:20.313Z,101519.69
2022-12-19T11:45:03.294Z,101516.16
2022-12-19T11:48:16.343Z,101520.53
2022-12-19T11:51:14.625Z,101524.03
2022-12-19T11:54:02.021Z,101510.88
2022-12-19T11:56:29.685Z,101497.78
2022-12-19T11:59:17.955Z,101492.47
2022-12-19T12:02:22.324Z,101485.41
2022-12-19T12:05:36.998Z,101482.72
2022-12-19T12:11:03.674Z,101493.16
2022-12-19T12:18:38.411Z,101492.25
2022-12-19T12:25:56.200Z,101493.03
2022-12-19T12:31:00.295Z,101483.38
2022-12-19T12:31:07.147Z,101475.50
2022-12-19T12:31:31.376Z,101474.59
2022-12-19T12:31:39.009Z,101483.34
2022-12-19T12:31:39.474Z,101483.34
2022-12-19T12:35:46.742Z,101485.06
2022-12-19T12:38:13.759Z,101477.16
2022-12-19T12:40:16.189Z,101467.53
2022-12-19T12:43:20.933Z,101456.13
2022-12-19T12:45:48.152Z,101465.75
2022-12-19T12:48:34.279Z,101452.53
2022-12-19T12:51:02.194Z,101456.03
2022-12-19T12:53:38.070Z,101447.25
2022-12-19T12:56:09.848Z,101453.28
2022-12-19T12:58:51.506Z,101459.34
2022-12-19T13:01:38.913Z,101462.72
2022-12-19T13:04:12.193Z,101467.91
2022-12-19T13:07:26.087Z,101471.38
2022-12-19T13:10:14.931Z,101459.97
2022-12-19T13:13:02.435Z,101464.34
2022-12-19T13:15:29.929Z,101449.44
2022-12-19T13:17:56.882Z,101448.56
2022-12-19T13:20:30.126Z,101443.22
2022-12-19T13:22:58.059Z,101432.75
2022-12-19T13:25:49.772Z,101430.97
2022-12-19T13:28:20.535Z,101422.19
2022-12-19T13:31:20.788Z,101417.78
2022-12-19T13:33:55.771Z,101407.25
2022-12-19T13:39:50.342Z,101402.81
2022-12-19T13:40:12.215Z,101392.28
2022-12-19T13:43:18.830Z,101386.16
2022-12-19T13:46:38.208Z,101395.78
2022-12-19T13:49:18.997Z,101384.41
2022-12-19T13:51:55.199Z,101378.25
2022-12-19T13:54:55.707Z,101379.16
2022-12-19T13:57:30.135Z,101380.91
2022-12-19T14:00:02.037Z,101374.81
2022-12-19T14:02:48.548Z,101372.22
2022-12-19T14:06:16.783Z,101372.22
2022-12-19T14:08:27.533Z,101364.41
2022-12-19T14:11:40.581Z,101368.78
2022-12-19T14:14:17.863Z,101361.84
2022-12-19T14:16:49.233Z,101363.66
2022-12-19T14:19:25.425Z,101357.53
2022-12-19T14:22:11.198Z,101363.72
2022-12-19T14:24:41.404Z,101354.97
2022-12-19T14:28:21.683Z,101352.34
2022-12-19T14:30:29.740Z,101348.03
2022-12-19T14:33:39.091Z,101351.59
2022-12-19T14:36:06.196Z,101349.00
2022-12-19T14:39:22.660Z,101346.41
2022-12-19T14:41:45.743Z,101344.69
2022-12-19T14:52:51.708Z,101335.94
2022-12-19T14:52:52.417Z,101337.72
2022-12-19T14:54:08.841Z,101346.50
2022-12-19T14:54:50.610Z,101346.44
2022-12-19T14:56:13.604Z,101343.84
2022-12-19T14:58:53.567Z,101348.28
2022-12-19T15:01:35.318Z,101345.63
2022-12-19T15:04:49.633Z,101335.19
2022-12-19T15:07:21.147Z,101335.22
2022-12-19T15:11:08.740Z,101325.59
2022-12-19T15:14:54.329Z,101326.47
2022-12-19T15:16:24.696Z,101329.16
2022-12-19T15:18:57.055Z,101340.56
2022-12-19T15:21:24.454Z,101342.28
2022-12-19T15:23:51.772Z,101347.53
2022-12-19T15:26:29.405Z,101330.88
2022-12-19T15:28:57.672Z,101338.72
2022-12-19T15:31:43.659Z,101336.97
2022-12-19T15:36:58.846Z,101337.88
2022-12-19T15:39:29.709Z,101344.84
2022-12-19T15:42:00.287Z,101353.63
2022-12-19T15:44:41.305Z,101356.28
2022-12-19T15:47:21.839Z,101372.88
2022-12-19T15:49:48.984Z,101379.00
2022-12-19T15:52:21.807Z,101377.22
2022-12-19T15:54:50.560Z,101384.16
2022-12-19T15:58:05.306Z,101386.75
2022-12-19T16:00:36.602Z,101386.75
2022-12-19T16:03:29.092Z,101395.44
2022-12-19T16:05:57.043Z,101379.66
2022-12-19T16:08:28.174Z,101390.16
2022-12-19T16:11:01.661Z,101377.00
2022-12-19T16:13:34.822Z,101381.41
2022-12-19T16:16:09.225Z,101380.53
2022-12-19T16:18:42.620Z,101377.00
2022-12-19T16:21:26.132Z,101383.97
2022-12-19T16:23:58.553Z,101376.97
2022-12-19T16:26:33.061Z,101380.47
2022-12-19T16:29:01.012Z,101372.63
2022-12-19T16:31:28.798Z,101365.63
2022-12-19T16:33:56.900Z,101378.78
2022-12-19T16:36:24.062Z,101388.41
2022-12-19T16:38:52.221Z,101381.41
2022-12-19T16:41:25.466Z,101380.53
2022-12-19T16:43:52.820Z,101390.19
2022-12-19T16:46:23.729Z,101388.41
2022-12-19T16:48:51.901Z,101386.66
2022-12-19T16:51:27.595Z,101385.81
2022-12-19T16:54:00.586Z,101385.78
2022-12-19T16:56:35.387Z,101389.31
2022-12-19T16:59:11.220Z,101396.31
2022-12-19T17:01:39.599Z,101401.56
2022-12-19T17:04:09.750Z,101395.38
2022-12-19T17:06:44.108Z,101390.09
2022-12-19T17:09:20.753Z,101398.88
2022-12-19T17:12:01.367Z,101400.59
2022-12-19T17:14:32.052Z,101402.34
2022-12-19T17:17:00.095Z,101400.56
2022-12-19T17:19:38.346Z,101384.78
2022-12-19T17:22:14.186Z,101381.31
2022-12-19T17:24:44.952Z,101386.56
2022-12-19T17:27:13.152Z,101381.31
2022-12-19T17:29:40.299Z,101375.19
2022-12-19T17:32:09.451Z,101379.56
2022-12-19T17:34:36.727Z,101375.19
2022-12-19T17:37:05.326Z,101380.47
2022-12-19T17:39:34.604Z,101383.09
2022-12-19T17:42:16.588Z,101385.72
2022-12-19T17:44:44.141Z,101379.56
2022-12-19T17:47:20.055Z,101355.03
2022-12-19T17:49:48.726Z,101364.63
2022-12-19T17:52:19.730Z,101369.88
2022-12-19T17:54:47.539Z,101368.09
2022-12-19T17:57:17.889Z,101365.47
2022-12-19T17:59:46.652Z,101379.47
2022-12-19T18:02:26.532Z,101369.81
2022-12-19T18:04:53.799Z,101371.50
2022-12-19T18:07:21.247Z,101368.84
2022-12-19T18:09:48.413Z,101371.44
2022-12-19T18:12:15.943Z,101373.16
2022-12-19T18:14:43.610Z,101366.94
2022-12-19T18:17:13.740Z,101367.81
2022-12-19T18:19:40.880Z,101369.50
2022-12-19T18:22:14.599Z,101372.16
2022-12-19T18:24:42.017Z,101368.63
2022-12-19T18:27:09.272Z,101366.84
2022-12-19T18:29:37.070Z,101365.06
2022-12-19T18:32:04.488Z,101376.44
2022-12-19T18:34:35.559Z,101379.91
2022-12-19T18:37:05.370Z,101371.19
2022-12-19T18:39:35.588Z,101372.03
2022-12-19T18:42:19.736Z,101387.81
2022-12-19T18:44:46.787Z,101389.59
2022-12-19T18:47:22.815Z,101392.19
2022-12-19T18:49:54.097Z,101383.44
2022-12-19T18:52:21.137Z,101393.06
2022-12-19T18:54:48.249Z,101387.81
2022-12-19T18:57:15.317Z,101398.38
2022-12-19T18:59:42.406Z,101398.38
2022-12-19T19:02:27.685Z,101392.22
2022-12-19T19:04:55.869Z,101382.63
2022-12-19T19:07:23.009Z,101381.75
2022-12-19T19:09:50.155Z,101364.19
2022-12-19T19:15:33.531Z,101372.09
2022-12-19T19:18:04.829Z,101376.44
2022-12-19T19:20:37.583Z,101377.38
2022-12-19T19:23:08.660Z,101375.59
2022-12-19T19:25:36.667Z,101373.84
2022-12-19T19:28:05.720Z,101371.25
2022-12-19T19:30:37.086Z,101371.25
2022-12-19T19:33:14.762Z,101378.25
2022-12-19T19:35:47.437Z,101382.63
2022-12-19T19:38:18.698Z,101379.09
2022-12-19T19:40:45.874Z,101379.97
2022-12-19T19:43:13.257Z,101385.19
2022-12-19T19:45:43.502Z,101388.69
2022-12-19T19:48:10.934Z,101391.38
2022-12-19T19:50:38.355Z,101396.63
2022-12-19T19:53:05.421Z,101401.03
2022-12-19T19:55:36.619Z,101396.63
2022-12-19T19:58:03.652Z,101401.91
2022-12-19T20:00:30.859Z,101401.91
2022-12-19T20:02:58.058Z,101404.50
2022-12-19T20:05:28.527Z,101407.97
2022-12-19T20:07:56.311Z,101412.31
2022-12-19T20:10:23.363Z,101411.41
2022-12-19T20:12:50.316Z,101414.88
2022-12-19T20:15:17.260Z,101416.59
2022-12-19T20:17:44.327Z,101418.34
2022-12-19T20:20:11.961Z,101421.00
2022-12-19T20:22:39.022Z,101420.97
2022-12-19T20:25:06.294Z,101411.34
2022-12-19T20:27:33.306Z,101414.03
2022-12-19T20:30:00.380Z,101406.19
2022-12-19T20:32:33.257Z,101405.34
2022-12-19T20:35:00.271Z,101409.75
2022-12-19T20:37:27.237Z,101401.00
2022-12-19T20:39:54.208Z,101400.13
2022-12-19T20:42:21.234Z,101403.59
2022-12-19T20:44:48.262Z,101408.88
2022-12-19T20:47:15.259Z,101418.50
2022-12-19T20:49:42.297Z,101398.38
2022-12-19T20:52:09.254Z,101409.81
2022-12-19T20:54:36.333Z,101414.31
2022-12-19T20:57:03.486Z,101413.47
2022-12-19T20:59:30.625Z,101413.59
2022-12-19T21:02:00.531Z,101426.78
2022-12-19T21:04:29.379Z,101428.59
2022-12-19T21:06:56.770Z,101426.97
2022-12-19T21:09:23.786Z,101428.75
2022-12-19T21:11:50.845Z,101420.94
2022-12-19T21:14:17.938Z,101416.59
2022-12-19T21:16:45.015Z,101416.66
2022-12-19T21:19:13.093Z,101414.06
2022-12-19T21:21:40.125Z,101413.22
2022-12-19T21:24:07.360Z,101412.38
2022-12-19T21:26:34.508Z,101419.41
2022-12-19T21:29:01.716Z,101415.06
2022-12-19T21:31:30.371Z,101418.59
2022-12-19T21:34:00.378Z,101426.47
2022-12-19T21:36:31.171Z,101422.09
2022-12-19T21:39:00.435Z,101423.88
2022-12-19T21:41:29.619Z,101421.25
2022-12-19T21:43:57.586Z,101421.28
2022-12-19T21:46:29.320Z,101425.69
2022-12-19T21:48:57.877Z,101416.94
2022-12-19T21:51:29.589Z,101416.94
2022-12-19T21:54:01.031Z,101411.72
2022-12-19T21:56:32.089Z,101405.56
2022-12-19T21:59:05.090Z,101415.13
2022-12-19T22:01:33.896Z,101414.22
2022-12-19T22:04:06.560Z,101419.47
2022-12-19T22:06:37.127Z,101410.63
2022-12-19T22:09:07.219Z,101406.22
2022-12-19T22:11:36.811Z,101403.53
2022-12-19T22:14:05.225Z,101404.28
2022-12-19T22:16:35.421Z,101406.00
2022-12-19T22:19:04.643Z,101407.72
2022-12-19T22:21:32.303Z,101394.56
2022-12-19T22:24:02.671Z,101391.03
2022-12-19T22:26:31.682Z,101391.81
2022-12-19T22:28:59.194Z,101397.91
2022-12-19T22:31:34.045Z,101389.06
2022-12-19T22:34:05.785Z,101385.50
2022-12-19T22:36:35.833Z,101375.84
2022-12-19T22:39:06.535Z,101377.63
2022-12-19T22:41:35.569Z,101374.13
2022-12-19T22:44:03.001Z,101361.84
2022-12-19T22:46:37.029Z,101353.09
2022-12-19T22:49:08.693Z,101354.91
2022-12-19T22:51:37.289Z,101355.84
2022-12-19T22:54:12.079Z,101358.47
2022-12-19T22:56:40.244Z,101354.94
2022-12-19T22:59:10.200Z,101349.66
2022-12-19T23:01:43.399Z,101338.25
2022-12-19T23:04:14.728Z,101342.63
2022-12-19T23:06:44.265Z,101345.28
2022-12-19T23:09:17.567Z,101354.09
2022-12-19T23:11:49.345Z,101351.50
2022-12-19T23:14:19.648Z,101355.03
2022-12-19T23:16:48.171Z,101365.50
2022-12-19T23:19:16.112Z,101352.28
2022-12-19T23:21:43.606Z,101345.22
2022-12-19T23:24:12.197Z,101353.88
2022-12-19T23:26:39.565Z,101353.78
2022-12-19T23:29:11.812Z,101348.44
2022-12-19T23:31:42.297Z,101344.72
2022-12-19T23:34:13.119Z,101336.66
2022-12-19T23:39:27.370Z,101339.94
2022-12-19T23:41:54.508Z,101348.59
2022-12-19T23:44:21.599Z,101342.34
2022-12-19T23:46:48.654Z,101344.91
2022-12-19T23:49:15.884Z,101342.19
2022-12-19T23:51:43.033Z,101339.47
2022-12-19T23:54:10.110Z,101341.16
2022-12-19T23:56:37.651Z,101324.41
2022-12-19T23:59:04.739Z,101334.91
